sensor_id;sensor_type;location;lat;lon;timestamp;pressure;altitude;pressure_sealevel;temperature;humidity
17438;BME280;72029;52.198;5.422;2023-08-17T00:00:22;102033.34;;;18.17;73.12
17438;BME280;72029;52.198;5.422;2023-08-17T00:02:52;102036.66;;;18.01;73.33
17438;BME280;72029;52.198;5.422;2023-08-17T00:05:21;102038.09;;;17.96;73.07
17438;BME280;72029;52.198;5.422;2023-08-17T00:07:50;102035.81;;;18.01;73.06
17438;BME280;72029;52.198;5.422;2023-08-17T00:10:20;102037.84;;;17.89;73.67
17438;BME280;72029;52.198;5.422;2023-08-17T00:12:49;102033.03;;;17.93;73.36
17438;BME280;72029;52.198;5.422;2023-08-17T00:15:18;102029.72;;;17.81;73.57
17438;BME280;72029;52.198;5.422;2023-08-17T00:17:50;102026.78;;;17.75;74.38
17438;BME280;72029;52.198;5.422;2023-08-17T00:20:20;102031.16;;;17.47;74.87
17438;BME280;72029;52.198;5.422;2023-08-17T00:22:49;102031.16;;;17.47;75.35
17438;BME280;72029;52.198;5.422;2023-08-17T00:25:18;102021.47;;;17.46;74.82
17438;BME280;72029;52.198;5.422;2023-08-17T00:27:47;102031.91;;;17.49;74.89
17438;BME280;72029;52.198;5.422;2023-08-17T00:30:17;102026.13;;;17.44;74.70
17438;BME280;72029;52.198;5.422;2023-08-17T00:32:46;102023.56;;;17.43;74.80
17438;BME280;72029;52.198;5.422;2023-08-17T00:35:18;102017.50;;;17.41;74.62
17438;BME280;72029;52.198;5.422;2023-08-17T00:37:47;102020.34;;;17.58;74.60
17438;BME280;72029;52.198;5.422;2023-08-17T00:40:17;102023.03;;;17.39;74.98
17438;BME280;72029;52.198;5.422;2023-08-17T00:42:46;102012.75;;;17.25;75.23
17438;BME280;72029;52.198;5.422;2023-08-17T00:45:17;102014.31;;;17.18;75.90
17438;BME280;72029;52.198;5.422;2023-08-17T00:47:46;102009.50;;;17.31;75.59
17438;BME280;72029;52.198;5.422;2023-08-17T00:50:18;102010.59;;;17.38;75.08
17438;BME280;72029;52.198;5.422;2023-08-17T00:52:48;102013.84;;;17.42;75.27
17438;BME280;72029;52.198;5.422;2023-08-17T00:55:19;102011.19;;;17.51;74.85
17438;BME280;72029;52.198;5.422;2023-08-17T00:57:49;102016.66;;;17.40;75.01
17438;BME280;72029;52.198;5.422;2023-08-17T01:00:20;102017.25;;;17.34;74.77
17438;BME280;72029;52.198;5.422;2023-08-17T01:02:49;102011.91;;;17.34;74.91
17438;BME280;72029;52.198;5.422;2023-08-17T01:05:23;102007.53;;;17.33;74.62
17438;BME280;72029;52.198;5.422;2023-08-17T01:07:52;102014.84;;;17.41;74.75
17438;BME280;72029;52.198;5.422;2023-08-17T01:10:21;102012.91;;;17.33;74.88
17438;BME280;72029;52.198;5.422;2023-08-17T01:13:02;102009.94;;;17.26;75.18
17438;BME280;72029;52.198;5.422;2023-08-17T01:15:37;101992.19;;;17.25;74.97
17438;BME280;72029;52.198;5.422;2023-08-17T01:18:17;102014.28;;;17.37;75.00
17438;BME280;72029;52.198;5.422;2023-08-17T01:20:53;102016.66;;;17.40;75.32
17438;BME280;72029;52.198;5.422;2023-08-17T01:23:25;102014.56;;;17.34;74.96
17438;BME280;72029;52.198;5.422;2023-08-17T01:25:54;102011.19;;;17.42;74.77
17438;BME280;72029;52.198;5.422;2023-08-17T01:28:23;102011.06;;;17.24;75.21
17438;BME280;72029;52.198;5.422;2023-08-17T01:30:58;102009.38;;;17.23;75.31
17438;BME280;72029;52.198;5.422;2023-08-17T01:33:35;101998.94;;;17.20;75.57
17438;BME280;72029;52.198;5.422;2023-08-17T01:36:20;102005.00;;;17.22;76.08
17438;BME280;72029;52.198;5.422;2023-08-17T01:38:56;101986.72;;;16.98;75.85
17438;BME280;72029;52.198;5.422;2023-08-17T01:41:27;102000.69;;;17.02;76.05
17438;BME280;72029;52.198;5.422;2023-08-17T01:43:58;102003.19;;;17.03;76.28
17438;BME280;72029;52.198;5.422;2023-08-17T01:46:31;101999.28;;;17.07;76.59
17438;BME280;72029;52.198;5.422;2023-08-17T01:49:01;102005.31;;;17.09;76.56
17438;BME280;72029;52.198;5.422;2023-08-17T01:51:30;101986.59;;;17.00;76.86
17438;BME280;72029;52.198;5.422;2023-08-17T01:54:01;102005.00;;;17.31;76.06
17438;BME280;72029;52.198;5.422;2023-08-17T01:56:30;102001.03;;;17.35;75.69
17438;BME280;72029;52.198;5.422;2023-08-17T01:58:59;101996.00;;;17.23;76.09
17438;BME280;72029;52.198;5.422;2023-08-17T02:01:28;101995.84;;;17.24;76.18
17438;BME280;72029;52.198;5.422;2023-08-17T02:03:57;101997.81;;;17.22;76.44
17438;BME280;72029;52.198;5.422;2023-08-17T02:06:28;102001.63;;;17.29;75.84
17438;BME280;72029;52.198;5.422;2023-08-17T02:09:01;101999.63;;;17.31;75.75
17438;BME280;72029;52.198;5.422;2023-08-17T02:11:30;101999.69;;;17.03;76.75
17438;BME280;72029;52.198;5.422;2023-08-17T02:13:59;101995.44;;;17.10;76.74
17438;BME280;72029;52.198;5.422;2023-08-17T02:16:28;101999.13;;;17.09;76.63
17438;BME280;72029;52.198;5.422;2023-08-17T02:18:57;102001.09;;;17.07;76.84
17438;BME280;72029;52.198;5.422;2023-08-17T02:21:26;101996.59;;;17.07;76.74
17438;BME280;72029;52.198;5.422;2023-08-17T02:23:55;101982.91;;;17.01;76.56
17438;BME280;72029;52.198;5.422;2023-08-17T02:26:26;101992.66;;;16.83;77.30
17438;BME280;72029;52.198;5.422;2023-08-17T02:28:55;101994.63;;;16.81;77.65
17438;BME280;72029;52.198;5.422;2023-08-17T02:31:24;101997.16;;;16.92;77.19
17438;BME280;72029;52.198;5.422;2023-08-17T02:33:53;101990.13;;;16.81;77.34
17438;BME280;72029;52.198;5.422;2023-08-17T02:36:26;101995.75;;;16.68;77.39
17438;BME280;72029;52.198;5.422;2023-08-17T02:38:56;101991.94;;;16.81;77.64
17438;BME280;72029;52.198;5.422;2023-08-17T02:41:27;101977.16;;;16.57;77.90
17438;BME280;72029;52.198;5.422;2023-08-17T02:43:58;101988.16;;;16.74;77.69
17438;BME280;72029;52.198;5.422;2023-08-17T02:46:27;101979.84;;;16.86;77.09
17438;BME280;72029;52.198;5.422;2023-08-17T02:48:56;101989.44;;;16.89;76.52
17438;BME280;72029;52.198;5.422;2023-08-17T02:51:25;101977.97;;;16.87;76.34
17438;BME280;72029;52.198;5.422;2023-08-17T02:53:54;101972.94;;;16.84;76.56
17438;BME280;72029;52.198;5.422;2023-08-17T02:56:25;101975.47;;;16.95;76.54
17438;BME280;72029;52.198;5.422;2023-08-17T02:58:54;101983.50;;;16.95;76.46
17438;BME280;72029;52.198;5.422;2023-08-17T03:01:24;101972.94;;;16.93;76.57
17438;BME280;72029;52.198;5.422;2023-08-17T03:03:53;101978.97;;;17.05;76.28
17438;BME280;72029;52.198;5.422;2023-08-17T03:06:22;101974.88;;;17.01;76.66
17438;BME280;72029;52.198;5.422;2023-08-17T03:08:51;101976.84;;;17.08;76.64
17438;BME280;72029;52.198;5.422;2023-08-17T03:11:21;101980.47;;;17.17;75.90
17438;BME280;72029;52.198;5.422;2023-08-17T03:13:52;101985.53;;;17.29;75.77
17438;BME280;72029;52.198;5.422;2023-08-17T03:16:26;101979.03;;;17.42;75.42
17438;BME280;72029;52.198;5.422;2023-08-17T03:18:56;101973.72;;;17.22;75.87
17438;BME280;72029;52.198;5.422;2023-08-17T03:21:25;101972.19;;;17.10;76.26
17438;BME280;72029;52.198;5.422;2023-08-17T03:23:54;101977.41;;;17.12;76.13
17438;BME280;72029;52.198;5.422;2023-08-17T03:26:23;101975.69;;;17.20;75.63
17438;BME280;72029;52.198;5.422;2023-08-17T03:28:54;101979.66;;;17.07;76.25
17438;BME280;72029;52.198;5.422;2023-08-17T03:31:23;101973.19;;;17.00;76.09
17438;BME280;72029;52.198;5.422;2023-08-17T03:33:52;101974.31;;;17.07;76.40
17438;BME280;72029;52.198;5.422;2023-08-17T03:36:22;101977.38;;;17.21;76.00
17438;BME280;72029;52.198;5.422;2023-08-17T03:38:51;101971.72;;;17.24;75.76
17438;BME280;72029;52.198;5.422;2023-08-17T03:41:21;101981.06;;;17.11;76.14
17438;BME280;72029;52.198;5.422;2023-08-17T03:43:54;101968.97;;;17.07;76.38
17438;BME280;72029;52.198;5.422;2023-08-17T03:46:23;101971.31;;;17.10;76.22
17438;BME280;72029;52.198;5.422;2023-08-17T03:48:52;101972.06;;;17.02;76.77
17438;BME280;72029;52.198;5.422;2023-08-17T03:51:21;101953.34;;;16.83;76.90
17438;BME280;72029;52.198;5.422;2023-08-17T03:53:50;101965.84;;;17.02;76.90
17438;BME280;72029;52.198;5.422;2023-08-17T03:56:19;101963.34;;;17.00;76.88
17438;BME280;72029;52.198;5.422;2023-08-17T03:58:48;101958.41;;;16.96;77.20
17438;BME280;72029;52.198;5.422;2023-08-17T04:01:19;101960.38;;;16.94;76.78
17438;BME280;72029;52.198;5.422;2023-08-17T04:03:48;101966.13;;;16.99;76.57
17438;BME280;72029;52.198;5.422;2023-08-17T04:06:17;101976.69;;;17.10;75.82
17438;BME280;72029;52.198;5.422;2023-08-17T04:08:46;101972.88;;;17.12;75.70
17438;BME280;72029;52.198;5.422;2023-08-17T04:11:15;101973.03;;;17.11;75.84
17438;BME280;72029;52.198;5.422;2023-08-17T04:13:44;101981.63;;;17.14;76.12
17438;BME280;72029;52.198;5.422;2023-08-17T04:16:13;101981.06;;;17.11;75.93
17438;BME280;72029;52.198;5.422;2023-08-17T04:18:45;101979.25;;;17.11;76.05
17438;BME280;72029;52.198;5.422;2023-08-17T04:21:14;101973.28;;;17.27;75.74
17438;BME280;72029;52.198;5.422;2023-08-17T04:23:43;101982.91;;;17.10;76.66
17438;BME280;72029;52.198;5.422;2023-08-17T04:26:12;101978.13;;;17.04;76.51
17438;BME280;72029;52.198;5.422;2023-08-17T04:28:41;101977.28;;;17.04;76.70
17438;BME280;72029;52.198;5.422;2023-08-17T04:31:10;101981.31;;;17.17;75.97
17438;BME280;72029;52.198;5.422;2023-08-17T04:33:40;101976.53;;;17.21;76.34
17438;BME280;72029;52.198;5.422;2023-08-17T04:36:12;101982.03;;;17.10;76.30
17438;BME280;72029;52.198;5.422;2023-08-17T04:38:41;101970.09;;;17.04;76.09
17438;BME280;72029;52.198;5.422;2023-08-17T04:41:10;101975.44;;;17.04;76.70
17438;BME280;72029;52.198;5.422;2023-08-17T04:43:39;101970.63;;;16.98;76.91
17438;BME280;72029;52.198;5.422;2023-08-17T04:46:09;101970.25;;;16.93;77.47
17438;BME280;72029;52.198;5.422;2023-08-17T04:48:38;101968.13;;;16.97;77.35
17438;BME280;72029;52.198;5.422;2023-08-17T04:51:07;101977.69;;;17.09;76.84
17438;BME280;72029;52.198;5.422;2023-08-17T04:53:38;101965.00;;;17.11;76.62
17438;BME280;72029;52.198;5.422;2023-08-17T04:56:07;101965.00;;;17.11;77.11
17438;BME280;72029;52.198;5.422;2023-08-17T04:58:36;101962.88;;;17.14;77.03
17438;BME280;72029;52.198;5.422;2023-08-17T05:01:05;101962.31;;;17.11;77.34
17438;BME280;72029;52.198;5.422;2023-08-17T05:03:34;101964.88;;;17.03;77.87
17438;BME280;72029;52.198;5.422;2023-08-17T05:06:06;101950.09;;;16.89;78.27
17438;BME280;72029;52.198;5.422;2023-08-17T05:08:37;101957.72;;;16.84;78.57
17438;BME280;72029;52.198;5.422;2023-08-17T05:11:06;101949.81;;;16.83;78.66
17438;BME280;72029;52.198;5.422;2023-08-17T05:13:36;101952.06;;;16.87;78.83
17438;BME280;72029;52.198;5.422;2023-08-17T05:16:05;101948.41;;;16.98;78.18
17438;BME280;72029;52.198;5.422;2023-08-17T05:18:34;101948.69;;;16.95;78.18
17438;BME280;72029;52.198;5.422;2023-08-17T05:21:03;101942.19;;;16.88;78.25
17438;BME280;72029;52.198;5.422;2023-08-17T05:23:32;101955.75;;;16.86;78.62
17438;BME280;72029;52.198;5.422;2023-08-17T05:26:04;101953.19;;;16.94;78.16
17438;BME280;72029;52.198;5.422;2023-08-17T05:28:34;101954.88;;;17.05;77.88
17438;BME280;72029;52.198;5.422;2023-08-17T05:31:05;101958.28;;;16.88;78.36
17438;BME280;72029;52.198;5.422;2023-08-17T05:33:34;101952.63;;;16.91;78.25
17438;BME280;72029;52.198;5.422;2023-08-17T05:36:04;101961.91;;;17.06;77.66
17438;BME280;72029;52.198;5.422;2023-08-17T05:38:33;101957.56;;;16.95;78.13
17438;BME280;72029;52.198;5.422;2023-08-17T05:41:04;101961.09;;;16.96;78.04
17438;BME280;72029;52.198;5.422;2023-08-17T05:43:33;101954.28;;;17.11;77.80
17438;BME280;72029;52.198;5.422;2023-08-17T05:46:02;101958.06;;;17.18;77.58
17438;BME280;72029;52.198;5.422;2023-08-17T05:48:33;101952.88;;;17.16;78.03
17438;BME280;72029;52.198;5.422;2023-08-17T05:51:02;101957.94;;;17.10;77.80
17438;BME280;72029;52.198;5.422;2023-08-17T05:53:31;101954.97;;;17.22;77.11
17438;BME280;72029;52.198;5.422;2023-08-17T05:56:00;101958.53;;;17.50;76.74
17438;BME280;72029;52.198;5.422;2023-08-17T05:58:31;101955.91;;;17.31;76.68
17438;BME280;72029;52.198;5.422;2023-08-17T06:01:07;101958.56;;;17.41;76.68
17438;BME280;72029;52.198;5.422;2023-08-17T06:03:37;101963.19;;;17.48;76.43
17438;BME280;72029;52.198;5.422;2023-08-17T06:06:06;101971.97;;;17.41;76.28
17438;BME280;72029;52.198;5.422;2023-08-17T06:08:35;101973.91;;;17.48;76.29
17438;BME280;72029;52.198;5.422;2023-08-17T06:11:04;101973.38;;;17.45;76.23
17438;BME280;72029;52.198;5.422;2023-08-17T06:13:36;101984.47;;;17.59;76.20
17438;BME280;72029;52.198;5.422;2023-08-17T06:16:05;101979.53;;;17.91;75.06
17438;BME280;72029;52.198;5.422;2023-08-17T06:18:34;101980.13;;;17.85;75.30
17438;BME280;72029;52.198;5.422;2023-08-17T06:21:03;101979.50;;;17.74;75.54
17438;BME280;72029;52.198;5.422;2023-08-17T06:23:32;101981.44;;;17.81;75.31
17438;BME280;72029;52.198;5.422;2023-08-17T06:26:01;101991.56;;;17.87;75.00
17438;BME280;72029;52.198;5.422;2023-08-17T06:28:30;101977.75;;;17.82;75.04
17438;BME280;72029;52.198;5.422;2023-08-17T06:31:02;101990.66;;;17.69;75.65
17438;BME280;72029;52.198;5.422;2023-08-17T06:33:31;101987.38;;;17.75;75.41
17438;BME280;72029;52.198;5.422;2023-08-17T06:36:00;101987.38;;;17.75;75.35
17438;BME280;72029;52.198;5.422;2023-08-17T06:38:29;101991.06;;;17.74;75.67
17438;BME280;72029;52.198;5.422;2023-08-17T06:40:58;101994.25;;;17.87;75.41
17438;BME280;72029;52.198;5.422;2023-08-17T06:43:27;101996.28;;;18.03;74.34
17438;BME280;72029;52.198;5.422;2023-08-17T06:45:56;101987.28;;;17.94;74.85
17438;BME280;72029;52.198;5.422;2023-08-17T06:48:29;101998.31;;;17.91;75.10
17438;BME280;72029;52.198;5.422;2023-08-17T06:50:58;101996.41;;;18.29;74.10
17438;BME280;72029;52.198;5.422;2023-08-17T06:53:28;101992.44;;;18.33;73.50
17438;BME280;72029;52.198;5.422;2023-08-17T06:55:57;101991.81;;;18.21;73.72
17438;BME280;72029;52.198;5.422;2023-08-17T06:58:26;101990.09;;;18.47;73.84
17438;BME280;72029;52.198;5.422;2023-08-17T07:00:55;101985.94;;;18.70;72.54
17438;BME280;72029;52.198;5.422;2023-08-17T07:03:25;101985.84;;;18.45;72.84
17438;BME280;72029;52.198;5.422;2023-08-17T07:05:56;101985.38;;;18.32;73.88
17438;BME280;72029;52.198;5.422;2023-08-17T07:08:25;101986.44;;;18.39;74.18
17438;BME280;72029;52.198;5.422;2023-08-17T07:10:54;101998.16;;;18.38;73.15
17438;BME280;72029;52.198;5.422;2023-08-17T07:13:23;101995.38;;;18.12;74.28
17438;BME280;72029;52.198;5.422;2023-08-17T07:15:53;101997.00;;;18.23;73.74
17438;BME280;72029;52.198;5.422;2023-08-17T07:18:22;102002.16;;;18.34;73.59
17438;BME280;72029;52.198;5.422;2023-08-17T07:20:51;102001.78;;;18.56;72.66
17438;BME280;72029;52.198;5.422;2023-08-17T07:23:22;102003.16;;;18.60;72.32
17438;BME280;72029;52.198;5.422;2023-08-17T07:25:51;102006.66;;;18.78;71.76
17438;BME280;72029;52.198;5.422;2023-08-17T07:28:20;102008.97;;;18.91;71.45
17438;BME280;72029;52.198;5.422;2023-08-17T07:30:49;102014.25;;;19.00;71.36
17438;BME280;72029;52.198;5.422;2023-08-17T07:33:18;102006.75;;;18.86;70.91
17438;BME280;72029;52.198;5.422;2023-08-17T07:35:47;102006.19;;;18.83;71.22
17438;BME280;72029;52.198;5.422;2023-08-17T07:38:17;102002.59;;;18.74;71.53
17438;BME280;72029;52.198;5.422;2023-08-17T07:40:48;101996.31;;;18.83;71.09
17438;BME280;72029;52.198;5.422;2023-08-17T07:43:17;102005.06;;;18.85;70.90
17438;BME280;72029;52.198;5.422;2023-08-17T07:45:53;101989.22;;;19.00;70.70
17438;BME280;72029;52.198;5.422;2023-08-17T07:48:22;101992.72;;;19.18;70.08
17438;BME280;72029;52.198;5.422;2023-08-17T07:50:52;101995.66;;;19.07;71.01
17438;BME280;72029;52.198;5.422;2023-08-17T07:53:21;101994.75;;;18.98;70.95
17438;BME280;72029;52.198;5.422;2023-08-17T07:55:53;101999.28;;;18.98;70.85
17438;BME280;72029;52.198;5.422;2023-08-17T07:58:22;101999.75;;;18.93;71.11
17438;BME280;72029;52.198;5.422;2023-08-17T08:00:51;102003.81;;;19.40;70.17
17438;BME280;72029;52.198;5.422;2023-08-17T08:03:20;102006.38;;;19.42;69.55
17438;BME280;72029;52.198;5.422;2023-08-17T08:05:49;102013.25;;;19.45;68.74
17438;BME280;72029;52.198;5.422;2023-08-17T08:08:18;102007.63;;;19.56;68.47
17438;BME280;72029;52.198;5.422;2023-08-17T08:10:47;102015.53;;;19.57;69.41
17438;BME280;72029;52.198;5.422;2023-08-17T08:13:18;102008.97;;;19.93;67.95
17438;BME280;72029;52.198;5.422;2023-08-17T08:15:48;102008.53;;;20.06;67.75
17438;BME280;72029;52.198;5.422;2023-08-17T08:18:16;102007.50;;;19.99;68.06
17438;BME280;72029;52.198;5.422;2023-08-17T08:20:45;101999.47;;;20.15;67.69
17438;BME280;72029;52.198;5.422;2023-08-17T08:23:14;102002.97;;;19.99;67.42
17438;BME280;72029;52.198;5.422;2023-08-17T08:25:44;102005.72;;;20.16;67.88
17438;BME280;72029;52.198;5.422;2023-08-17T08:28:13;102005.53;;;20.17;67.32
17438;BME280;72029;52.198;5.422;2023-08-17T08:30:44;102003.31;;;20.04;66.93
17438;BME280;72029;52.198;5.422;2023-08-17T08:33:13;102005.34;;;19.69;67.78
17438;BME280;72029;52.198;5.422;2023-08-17T08:35:42;102010.13;;;19.83;68.05
17438;BME280;72029;52.198;5.422;2023-08-17T08:38:11;102003.41;;;19.87;67.79
17438;BME280;72029;52.198;5.422;2023-08-17T08:40:42;101995.75;;;20.08;67.08
17438;BME280;72029;52.198;5.422;2023-08-17T08:43:12;102003.59;;;20.35;66.45
17438;BME280;72029;52.198;5.422;2023-08-17T08:45:45;102001.97;;;20.50;66.62
17438;BME280;72029;52.198;5.422;2023-08-17T08:48:18;102000.22;;;20.25;66.46
17438;BME280;72029;52.198;5.422;2023-08-17T08:50:50;101991.53;;;20.05;66.65
17438;BME280;72029;52.198;5.422;2023-08-17T08:53:27;101992.22;;;20.57;65.58
17438;BME280;72029;52.198;5.422;2023-08-17T08:55:58;101992.03;;;20.51;66.04
17438;BME280;72029;52.198;5.422;2023-08-17T08:58:29;101991.47;;;20.23;66.13
17438;BME280;72029;52.198;5.422;2023-08-17T09:01:03;101994.94;;;20.16;66.27
17438;BME280;72029;52.198;5.422;2023-08-17T09:03:33;102001.50;;;20.63;65.13
17438;BME280;72029;52.198;5.422;2023-08-17T09:06:04;101998.78;;;20.71;64.93
17438;BME280;72029;52.198;5.422;2023-08-17T09:08:33;101990.66;;;20.47;66.10
17438;BME280;72029;52.198;5.422;2023-08-17T09:11:03;101980.59;;;20.57;66.11
17438;BME280;72029;52.198;5.422;2023-08-17T09:13:32;101989.31;;;20.43;66.09
17438;BME280;72029;52.198;5.422;2023-08-17T09:16:04;101980.63;;;20.07;66.23
17438;BME280;72029;52.198;5.422;2023-08-17T09:18:34;101987.47;;;20.51;66.29
17438;BME280;72029;52.198;5.422;2023-08-17T09:21:03;101975.72;;;20.85;64.79
17438;BME280;72029;52.198;5.422;2023-08-17T09:23:32;101983.63;;;21.26;64.92
17438;BME280;72029;52.198;5.422;2023-08-17T09:26:09;101976.69;;;21.48;62.65
17438;BME280;72029;52.198;5.422;2023-08-17T09:28:39;101977.22;;;21.82;61.69
17438;BME280;72029;52.198;5.422;2023-08-17T09:31:12;101983.31;;;21.92;61.14
17438;BME280;72029;52.198;5.422;2023-08-17T09:33:41;101976.69;;;21.48;61.85
17438;BME280;72029;52.198;5.422;2023-08-17T09:36:11;101973.31;;;21.38;63.00
17438;BME280;72029;52.198;5.422;2023-08-17T09:38:41;101975.03;;;21.31;63.03
17438;BME280;72029;52.198;5.422;2023-08-17T09:41:10;101971.75;;;21.52;62.47
17438;BME280;72029;52.198;5.422;2023-08-17T09:43:41;101963.59;;;22.14;61.19
17438;BME280;72029;52.198;5.422;2023-08-17T09:46:13;101966.44;;;21.82;61.70
17438;BME280;72029;52.198;5.422;2023-08-17T09:48:44;101968.41;;;21.50;62.80
17438;BME280;72029;52.198;5.422;2023-08-17T09:51:15;101962.34;;;21.48;62.71
17438;BME280;72029;52.198;5.422;2023-08-17T09:53:44;101964.19;;;21.55;62.54
17438;BME280;72029;52.198;5.422;2023-08-17T09:56:23;101955.28;;;21.93;61.86
17438;BME280;72029;52.198;5.422;2023-08-17T09:58:52;101961.00;;;21.98;61.42
17438;BME280;72029;52.198;5.422;2023-08-17T10:01:27;101950.59;;;21.87;62.26
17438;BME280;72029;52.198;5.422;2023-08-17T10:03:59;101956.22;;;21.70;62.69
17438;BME280;72029;52.198;5.422;2023-08-17T10:06:31;101955.66;;;21.03;64.04
17438;BME280;72029;52.198;5.422;2023-08-17T10:09:03;101959.69;;;21.31;63.59
17438;BME280;72029;52.198;5.422;2023-08-17T10:11:36;101963.25;;;21.24;63.67
17438;BME280;72029;52.198;5.422;2023-08-17T10:14:15;101951.41;;;21.33;64.43
17438;BME280;72029;52.198;5.422;2023-08-17T10:16:57;101947.53;;;21.43;63.02
17438;BME280;72029;52.198;5.422;2023-08-17T10:19:37;101949.44;;;20.70;65.07
17438;BME280;72029;52.198;5.422;2023-08-17T10:22:22;101948.59;;;20.70;65.28
17438;BME280;72029;52.198;5.422;2023-08-17T10:24:53;101947.94;;;20.92;65.54
17438;BME280;72029;52.198;5.422;2023-08-17T10:27:23;101949.75;;;21.32;64.17
17438;BME280;72029;52.198;5.422;2023-08-17T10:29:53;101948.94;;;21.15;64.40
17438;BME280;72029;52.198;5.422;2023-08-17T10:32:25;101948.25;;;21.29;64.24
17438;BME280;72029;52.198;5.422;2023-08-17T10:34:57;101944.78;;;21.60;64.03
17438;BME280;72029;52.198;5.422;2023-08-17T10:37:27;101951.09;;;21.36;64.14
17438;BME280;72029;52.198;5.422;2023-08-17T10:39:57;101952.47;;;21.08;64.55
17438;BME280;72029;52.198;5.422;2023-08-17T10:42:33;101955.78;;;21.42;63.71
17438;BME280;72029;52.198;5.422;2023-08-17T10:45:28;101948.25;;;21.21;63.73
17438;BME280;72029;52.198;5.422;2023-08-17T10:48:29;101940.81;;;21.23;63.89
17438;BME280;72029;52.198;5.422;2023-08-17T10:51:04;101946.06;;;21.25;64.29
17438;BME280;72029;52.198;5.422;2023-08-17T10:53:37;101948.13;;;21.62;63.49
17438;BME280;72029;52.198;5.422;2023-08-17T10:56:12;101953.81;;;21.28;63.79
17438;BME280;72029;52.198;5.422;2023-08-17T10:58:43;101948.63;;;20.86;65.17
17438;BME280;72029;52.198;5.422;2023-08-17T11:01:12;101947.03;;;21.40;64.37
17438;BME280;72029;52.198;5.422;2023-08-17T11:04:10;101935.22;;;21.41;62.98
17438;BME280;72029;52.198;5.422;2023-08-17T11:06:39;101944.63;;;21.53;63.96
17438;BME280;72029;52.198;5.422;2023-08-17T11:09:10;101936.66;;;21.21;64.10
17438;BME280;72029;52.198;5.422;2023-08-17T11:11:40;101945.56;;;21.05;65.41
17438;BME280;72029;52.198;5.422;2023-08-17T11:14:09;101940.97;;;21.38;64.68
17438;BME280;72029;52.198;5.422;2023-08-17T11:16:38;101945.72;;;20.96;65.75
17438;BME280;72029;52.198;5.422;2023-08-17T11:19:10;101938.31;;;21.22;65.60
17438;BME280;72029;52.198;5.422;2023-08-17T11:21:39;101938.59;;;21.35;64.75
17438;BME280;72029;52.198;5.422;2023-08-17T11:24:10;101939.53;;;21.66;64.32
17438;BME280;72029;52.198;5.422;2023-08-17T11:26:40;101940.44;;;21.42;64.38
17438;BME280;72029;52.198;5.422;2023-08-17T11:29:09;101940.94;;;21.46;64.44
17438;BME280;72029;52.198;5.422;2023-08-17T11:31:40;101936.19;;;21.56;63.41
17438;BME280;72029;52.198;5.422;2023-08-17T11:34:14;101937.94;;;21.33;64.55
17438;BME280;72029;52.198;5.422;2023-08-17T11:36:44;101929.44;;;21.52;63.83
17438;BME280;72029;52.198;5.422;2023-08-17T11:39:13;101932.84;;;21.46;64.20
17438;BME280;72029;52.198;5.422;2023-08-17T11:41:44;101939.31;;;21.29;64.88
17438;BME280;72029;52.198;5.422;2023-08-17T11:44:13;101935.13;;;21.65;64.66
17438;BME280;72029;52.198;5.422;2023-08-17T11:46:42;101933.03;;;21.83;63.03
17438;BME280;72029;52.198;5.422;2023-08-17T11:49:13;101927.34;;;21.70;63.76
17438;BME280;72029;52.198;5.422;2023-08-17T11:51:42;101915.16;;;21.82;63.29
17438;BME280;72029;52.198;5.422;2023-08-17T11:54:11;101925.31;;;21.72;63.47
17438;BME280;72029;52.198;5.422;2023-08-17T11:56:40;101923.38;;;21.97;63.32
17438;BME280;72029;52.198;5.422;2023-08-17T11:59:10;101915.84;;;21.84;63.84
17438;BME280;72029;52.198;5.422;2023-08-17T12:01:40;101922.44;;;22.12;62.31
17438;BME280;72029;52.198;5.422;2023-08-17T12:04:09;101923.28;;;22.13;62.56
17438;BME280;72029;52.198;5.422;2023-08-17T12:06:44;101920.31;;;22.53;62.29
17438;BME280;72029;52.198;5.422;2023-08-17T12:09:13;101921.91;;;21.86;63.45
17438;BME280;72029;52.198;5.422;2023-08-17T12:11:45;101921.25;;;22.15;62.96
17438;BME280;72029;52.198;5.422;2023-08-17T12:14:15;101919.91;;;21.88;63.58
17438;BME280;72029;52.198;5.422;2023-08-17T12:16:48;101914.75;;;21.63;64.27
17438;BME280;72029;52.198;5.422;2023-08-17T12:19:19;101926.09;;;21.42;65.41
17438;BME280;72029;52.198;5.422;2023-08-17T12:21:52;101928.50;;;21.37;65.02
17438;BME280;72029;52.198;5.422;2023-08-17T12:24:24;101927.56;;;20.98;66.38
17438;BME280;72029;52.198;5.422;2023-08-17T12:26:57;101925.53;;;21.08;66.12
17438;BME280;72029;52.198;5.422;2023-08-17T12:29:27;101913.22;;;20.97;66.53
17438;BME280;72029;52.198;5.422;2023-08-17T12:31:57;101921.47;;;21.12;66.53
17438;BME280;72029;52.198;5.422;2023-08-17T12:34:26;101906.22;;;21.51;65.11
17438;BME280;72029;52.198;5.422;2023-08-17T12:36:57;101912.28;;;21.45;65.75
17438;BME280;72029;52.198;5.422;2023-08-17T12:39:26;101913.91;;;21.62;64.88
17438;BME280;72029;52.198;5.422;2023-08-17T12:41:55;101919.72;;;21.35;66.35
17438;BME280;72029;52.198;5.422;2023-08-17T12:44:24;101916.69;;;21.38;66.15
17438;BME280;72029;52.198;5.422;2023-08-17T12:46:53;101909.72;;;21.60;64.96
17438;BME280;72029;52.198;5.422;2023-08-17T12:49:23;101924.78;;;21.46;65.56
17438;BME280;72029;52.198;5.422;2023-08-17T12:51:52;101916.94;;;21.67;64.77
17438;BME280;72029;52.198;5.422;2023-08-17T12:54:24;101918.72;;;21.75;64.59
17438;BME280;72029;52.198;5.422;2023-08-17T12:56:53;101923.72;;;21.94;64.68
17438;BME280;72029;52.198;5.422;2023-08-17T12:59:22;101923.09;;;21.84;64.64
17438;BME280;72029;52.198;5.422;2023-08-17T13:01:51;101931.03;;;21.38;66.05
17438;BME280;72029;52.198;5.422;2023-08-17T13:04:19;101925.91;;;21.60;65.70
17438;BME280;72029;52.198;5.422;2023-08-17T13:06:48;101923.47;;;21.73;65.54